Terminal Aerodrome Forecast
Issued by NWS Tuscon, AZ

Home | Current Version | Previous Version | Text Only | Print | Product List | Glossary On
Versions: 1 2 3 4 5 6 7 8 9 10 11 12 13 14 15 16 17
000
FTUS45 KTWC 180500
TAFDUG
TAF
KDUG 180520Z 1806/1906 13010KT P6SM -SHRA SCT015 OVC040
      TEMPO 1806/1810 2SM SHRA OVC015
     FM181600 21012G18KT P6SM -SHRA SCT015 OVC040
     FM190200 VRB03KT P6SM SCT025 BKN050=

USA.gov is the U.S. government's official web portal to all federal, state and local government web resources and services.